createdAt,value
2023-02-14T00:01:20.612Z,85.32
2023-02-14T00:03:49.400Z,84.57
2023-02-14T00:06:17.243Z,85.19
2023-02-14T00:08:44.870Z,84.70
2023-02-14T00:11:13.871Z,84.87
2023-02-14T00:14:01.349Z,84.94
2023-02-14T00:16:28.838Z,85.45
2023-02-14T00:19:05.556Z,85.59
2023-02-14T00:21:38.389Z,85.53
2023-02-14T00:24:08.622Z,85.66
2023-02-14T00:26:38.596Z,85.10
2023-02-14T00:29:12.652Z,84.38
2023-02-14T00:31:40.877Z,84.62
2023-02-14T00:34:09.210Z,85.05
2023-02-14T00:36:37.319Z,84.97
2023-02-14T00:39:06.215Z,85.33
2023-02-14T00:41:34.068Z,85.44
2023-02-14T00:44:02.394Z,85.09
2023-02-14T00:46:29.781Z,85.09
2023-02-14T00:48:57.425Z,85.49
2023-02-14T00:51:24.971Z,85.44
2023-02-14T00:53:52.660Z,85.95
2023-02-14T00:56:20.975Z,86.45
2023-02-14T00:58:48.728Z,86.39
2023-02-14T01:01:19.158Z,86.54
2023-02-14T01:03:46.847Z,86.02
2023-02-14T01:06:14.430Z,85.66
2023-02-14T01:08:41.893Z,86.40
2023-02-14T01:11:16.924Z,85.72
2023-02-14T01:13:47.851Z,86.51
2023-02-14T01:16:17.990Z,86.54
2023-02-14T01:18:46.444Z,86.61
2023-02-14T01:21:27.677Z,86.33
2023-02-14T01:23:58.844Z,87.00
2023-02-14T01:26:27.463Z,87.25
2023-02-14T01:28:56.032Z,87.93
2023-02-14T01:31:26.566Z,87.65
2023-02-14T01:33:54.747Z,87.72
2023-02-14T01:36:29.929Z,88.04
2023-02-14T01:39:00.326Z,88.79
2023-02-14T01:41:31.384Z,88.49
2023-02-14T01:44:02.088Z,89.20
2023-02-14T01:46:32.546Z,89.65
2023-02-14T01:49:09.188Z,89.70
2023-02-14T01:51:41.178Z,90.92
2023-02-14T01:54:09.151Z,92.01
2023-02-14T01:56:41.544Z,91.47
2023-02-14T01:59:12.694Z,91.22
2023-02-14T02:01:44.227Z,93.12
2023-02-14T02:04:15.905Z,93.64
2023-02-14T02:06:47.127Z,92.04
2023-02-14T02:09:27.537Z,91.32
2023-02-14T02:11:55.431Z,90.52
2023-02-14T02:14:23.669Z,90.80
2023-02-14T02:17:10.257Z,90.11
2023-02-14T02:20:10.904Z,89.73
2023-02-14T02:23:19.466Z,89.68
2023-02-14T02:26:15.304Z,91.33
2023-02-14T02:29:09.520Z,91.64
2023-02-14T02:31:45.268Z,91.42
2023-02-14T02:34:40.307Z,92.73
2023-02-14T02:37:28.741Z,93.56
2023-02-14T02:40:07.969Z,94.00
2023-02-14T02:43:16.647Z,93.76
2023-02-14T02:46:14.692Z,95.04
2023-02-14T02:48:59.732Z,95.44
2023-02-14T02:52:18.885Z,95.87
2023-02-14T02:54:55.547Z,95.76
2023-02-14T02:57:29.648Z,96.00
2023-02-14T02:59:59.079Z,96.14
2023-02-14T03:02:57.332Z,96.06
2023-02-14T03:05:27.364Z,96.63
2023-02-14T03:07:54.744Z,96.24
2023-02-14T03:10:27.365Z,97.32
2023-02-14T03:13:19.734Z,96.36
2023-02-14T03:15:51.524Z,97.96
2023-02-14T03:18:22.062Z,99.74
2023-02-14T03:20:55.648Z,100.00
2023-02-14T03:23:32.226Z,100.00
2023-02-14T03:26:01.136Z,99.40
2023-02-14T03:28:45.862Z,98.83
2023-02-14T03:31:33.546Z,97.92
2023-02-14T03:34:14.577Z,97.36
2023-02-14T03:36:50.701Z,98.12
2023-02-14T03:39:27.103Z,100.00
2023-02-14T03:42:06.190Z,98.65
2023-02-14T03:44:36.429Z,98.46
2023-02-14T03:47:13.736Z,98.31
2023-02-14T03:49:46.866Z,98.71
2023-02-14T03:52:15.639Z,99.17
2023-02-14T03:54:46.429Z,99.83
2023-02-14T03:57:20.792Z,100.00
2023-02-14T03:59:48.735Z,100.00
2023-02-14T04:02:21.705Z,100.00
2023-02-14T04:04:51.674Z,100.00
2023-02-14T04:07:22.303Z,100.00
2023-02-14T04:09:50.544Z,100.00
2023-02-14T04:12:32.353Z,100.00
2023-02-14T04:15:03.816Z,100.00
2023-02-14T04:17:50.045Z,100.00
2023-02-14T04:20:17.482Z,100.00
2023-02-14T04:22:46.416Z,100.00
2023-02-14T04:25:14.622Z,100.00
2023-02-14T04:28:01.144Z,100.00
2023-02-14T04:30:28.558Z,100.00
2023-02-14T04:32:55.887Z,100.00
2023-02-14T04:35:23.229Z,100.00
2023-02-14T04:37:50.544Z,100.00
2023-02-14T04:40:18.056Z,100.00
2023-02-14T04:42:46.496Z,100.00
2023-02-14T04:45:14.710Z,100.00
2023-02-14T04:47:42.036Z,100.00
2023-02-14T04:50:10.142Z,100.00
2023-02-14T04:52:37.672Z,100.00
2023-02-14T04:55:05.869Z,100.00
2023-02-14T04:57:33.246Z,100.00
2023-02-14T05:00:00.874Z,100.00
2023-02-14T05:02:28.195Z,100.00
2023-02-14T05:04:55.545Z,100.00
2023-02-14T05:07:22.828Z,100.00
2023-02-14T05:09:50.201Z,100.00
2023-02-14T05:12:17.581Z,100.00
2023-02-14T05:14:45.341Z,100.00
2023-02-14T05:17:12.806Z,100.00
2023-02-14T05:19:40.301Z,100.00
2023-02-14T05:22:07.621Z,100.00
2023-02-14T05:24:37.340Z,100.00
2023-02-14T05:27:04.645Z,100.00
2023-02-14T05:29:31.973Z,100.00
2023-02-14T05:31:59.503Z,100.00
2023-02-14T05:34:27.014Z,100.00
2023-02-14T05:36:54.972Z,100.00
2023-02-14T05:39:24.373Z,100.00
2023-02-14T05:41:51.662Z,100.00
2023-02-14T05:44:19.093Z,100.00
2023-02-14T05:46:46.401Z,100.00
2023-02-14T05:49:13.959Z,100.00
2023-02-14T05:51:41.298Z,100.00
2023-02-14T05:54:10.866Z,100.00
2023-02-14T05:56:38.479Z,100.00
2023-02-14T05:59:05.865Z,100.00
2023-02-14T06:01:33.256Z,100.00
2023-02-14T06:04:00.730Z,100.00
2023-02-14T06:06:28.083Z,100.00
2023-02-14T06:08:55.514Z,100.00
2023-02-14T06:11:22.833Z,100.00
2023-02-14T06:13:50.233Z,100.00
2023-02-14T06:16:18.479Z,100.00
2023-02-14T06:18:45.782Z,100.00
2023-02-14T06:21:13.180Z,100.00
2023-02-14T06:23:40.662Z,100.00
2023-02-14T06:26:08.070Z,100.00
2023-02-14T06:28:35.414Z,100.00
2023-02-14T06:31:03.413Z,100.00
2023-02-14T06:33:32.376Z,100.00
2023-02-14T06:35:59.840Z,100.00
2023-02-14T06:38:27.185Z,100.00
2023-02-14T06:40:54.629Z,100.00
2023-02-14T06:43:22.060Z,100.00
2023-02-14T06:45:49.450Z,100.00
2023-02-14T06:48:16.884Z,100.00
2023-02-14T06:50:44.259Z,100.00
2023-02-14T06:53:11.663Z,100.00
2023-02-14T06:55:43.781Z,95.53
2023-02-14T06:58:11.562Z,91.71
2023-02-14T07:00:39.847Z,91.09
2023-02-14T07:03:08.023Z,89.98
2023-02-14T07:05:35.812Z,91.06
2023-02-14T07:08:03.417Z,91.09
2023-02-14T07:10:30.736Z,90.62
2023-02-14T07:12:58.092Z,91.78
2023-02-14T07:15:25.482Z,89.39
2023-02-14T07:17:53.044Z,84.78
2023-02-14T07:20:20.397Z,85.57
2023-02-14T07:22:49.834Z,87.86
2023-02-14T07:25:17.644Z,88.18
2023-02-14T07:27:45.004Z,88.47
2023-02-14T07:30:12.916Z,85.03
2023-02-14T07:32:42.034Z,81.61
2023-02-14T07:35:09.972Z,76.72
2023-02-14T07:37:37.375Z,76.00
2023-02-14T07:40:08.764Z,76.52
2023-02-14T07:42:41.603Z,75.43
2023-02-14T07:45:20.764Z,75.33
2023-02-14T07:47:50.696Z,72.35
2023-02-14T07:50:18.968Z,69.82
2023-02-14T07:52:46.589Z,65.46
2023-02-14T07:55:14.315Z,62.05
2023-02-14T07:57:41.808Z,61.19
2023-02-14T08:00:09.689Z,59.70
2023-02-14T08:02:40.150Z,58.84
2023-02-14T08:05:07.984Z,55.54
2023-02-14T08:07:35.592Z,53.32
2023-02-14T08:10:02.917Z,50.44
2023-02-14T08:12:48.514Z,52.34
2023-02-14T08:15:35.389Z,55.63
2023-02-14T08:18:02.943Z,52.61
2023-02-14T08:20:30.213Z,53.74
2023-02-14T08:22:58.260Z,51.08
2023-02-14T08:25:43.918Z,51.03
2023-02-14T08:28:11.473Z,48.78
2023-02-14T08:30:38.878Z,48.04
2023-02-14T08:33:07.286Z,45.74
2023-02-14T08:35:35.653Z,47.05
2023-02-14T08:38:03.754Z,45.46
2023-02-14T08:40:31.523Z,42.15
2023-02-14T08:42:58.921Z,41.19
2023-02-14T08:45:26.495Z,37.70
2023-02-14T08:47:53.963Z,38.58
2023-02-14T08:50:21.477Z,40.34
2023-02-14T08:52:49.607Z,39.16
2023-02-14T08:55:17.431Z,39.33
2023-02-14T08:57:44.886Z,38.36
2023-02-14T09:00:32.125Z,37.83
2023-02-14T09:02:59.999Z,38.56
2023-02-14T09:05:27.811Z,37.16
2023-02-14T09:07:56.653Z,37.41
2023-02-14T09:10:26.856Z,36.92
2023-02-14T09:12:54.300Z,34.97
2023-02-14T09:15:21.694Z,35.54
2023-02-14T09:17:49.061Z,35.74
2023-02-14T09:20:16.555Z,35.97
2023-02-14T09:22:44.096Z,34.38
2023-02-14T09:25:12.753Z,34.21
2023-02-14T09:27:40.308Z,36.01
2023-02-14T09:30:09.387Z,35.45
2023-02-14T09:32:36.857Z,35.37
2023-02-14T09:35:04.307Z,32.48
2023-02-14T09:37:50.016Z,36.07
2023-02-14T09:40:20.114Z,35.09
2023-02-14T09:42:53.377Z,34.60
2023-02-14T09:45:24.947Z,33.76
2023-02-14T09:48:07.539Z,34.00
2023-02-14T09:50:54.630Z,33.89
2023-02-14T09:53:25.319Z,33.73
2023-02-14T09:56:17.117Z,34.82
2023-02-14T09:59:05.012Z,34.09
2023-02-14T10:01:54.459Z,35.66
2023-02-14T10:04:30.688Z,36.69
2023-02-14T10:07:12.192Z,37.40
2023-02-14T10:09:54.573Z,38.26
2023-02-14T10:12:34.176Z,38.03
2023-02-14T10:15:10.752Z,39.45
2023-02-14T10:17:47.416Z,40.04
2023-02-14T10:20:21.933Z,39.81
2023-02-14T10:23:05.603Z,40.92
2023-02-14T10:25:48.407Z,41.18
2023-02-14T10:28:28.247Z,41.78
2023-02-14T10:31:13.752Z,42.35
2023-02-14T10:33:45.353Z,41.31
2023-02-14T10:36:32.109Z,42.28
2023-02-14T10:39:12.733Z,44.78
2023-02-14T10:41:40.033Z,42.33
2023-02-14T10:44:28.917Z,43.00
2023-02-14T10:47:07.160Z,43.79
2023-02-14T10:49:47.474Z,44.74
2023-02-14T10:52:25.885Z,45.57
2023-02-14T10:54:56.969Z,46.69
2023-02-14T10:57:31.531Z,47.74
2023-02-14T11:00:06.837Z,47.22
2023-02-14T11:02:40.089Z,47.27
2023-02-14T11:05:10.422Z,47.22
2023-02-14T11:07:37.747Z,46.72
2023-02-14T11:10:14.006Z,46.14
2023-02-14T11:12:41.881Z,44.74
2023-02-14T11:15:09.264Z,43.46
2023-02-14T11:17:37.466Z,43.75
2023-02-14T11:20:22.327Z,44.96
2023-02-14T11:22:51.458Z,41.43
2023-02-14T11:25:23.501Z,41.48
2023-02-14T11:27:53.761Z,41.00
2023-02-14T11:30:28.042Z,40.11
2023-02-14T11:32:56.391Z,40.32
2023-02-14T11:35:30.390Z,39.98
2023-02-14T11:37:58.333Z,39.90
2023-02-14T11:40:27.592Z,39.50
2023-02-14T11:43:12.861Z,38.68
2023-02-14T11:45:43.899Z,38.59
2023-02-14T11:48:36.558Z,39.11
2023-02-14T11:51:15.669Z,39.82
2023-02-14T11:53:53.512Z,40.13
2023-02-14T11:56:22.276Z,40.08
2023-02-14T11:58:58.640Z,40.64
2023-02-14T12:01:30.039Z,40.06
2023-02-14T12:04:01.822Z,40.30
2023-02-14T12:06:32.375Z,39.25
2023-02-14T12:09:23.980Z,38.44
2023-02-14T12:12:19.249Z,38.32
2023-02-14T12:14:46.893Z,38.10
2023-02-14T12:17:37.641Z,37.20
2023-02-14T12:20:14.156Z,37.34
2023-02-14T12:22:49.851Z,36.95
2023-02-14T12:25:25.598Z,36.65
2023-02-14T12:28:03.492Z,36.02
2023-02-14T12:30:35.241Z,36.52
2023-02-14T12:33:04.970Z,35.47
2023-02-14T12:35:54.632Z,35.27
2023-02-14T12:38:47.203Z,34.82
2023-02-14T12:41:17.438Z,34.39
2023-02-14T12:43:56.685Z,35.04
2023-02-14T12:46:41.425Z,34.86
2023-02-14T12:49:27.657Z,35.22
2023-02-14T12:52:15.885Z,35.27
2023-02-14T12:54:55.614Z,35.52
2023-02-14T12:57:35.092Z,35.58
2023-02-14T13:00:24.194Z,35.79
2023-02-14T13:03:07.066Z,35.35
2023-02-14T13:05:42.682Z,35.66
2023-02-14T13:08:34.419Z,36.57
2023-02-14T13:11:16.460Z,36.05
2023-02-14T13:13:52.741Z,36.47
2023-02-14T13:16:44.121Z,35.89
2023-02-14T13:19:50.033Z,36.23
2023-02-14T13:22:21.999Z,36.61
2023-02-14T13:24:58.565Z,37.25
2023-02-14T13:27:34.488Z,36.30
2023-02-14T13:30:12.102Z,37.25
2023-02-14T13:32:42.408Z,37.74
2023-02-14T13:35:17.418Z,38.61
2023-02-14T13:37:52.820Z,38.71
2023-02-14T13:40:26.340Z,38.80
2023-02-14T13:42:56.968Z,38.51
2023-02-14T13:45:32.466Z,38.51
2023-02-14T13:48:22.228Z,38.86
2023-02-14T13:51:06.231Z,39.11
2023-02-14T13:53:45.673Z,38.98
2023-02-14T13:56:13.220Z,38.52
2023-02-14T13:59:04.498Z,38.98
2023-02-14T14:01:42.843Z,39.96
2023-02-14T14:04:28.438Z,40.37
2023-02-14T14:07:04.791Z,41.18
2023-02-14T14:09:44.463Z,41.06
2023-02-14T14:12:27.073Z,40.52
2023-02-14T14:15:06.381Z,40.58
2023-02-14T14:17:40.400Z,41.16
2023-02-14T14:20:16.391Z,40.90
2023-02-14T14:22:58.671Z,40.72
2023-02-14T14:25:31.757Z,41.19
2023-02-14T14:28:00.369Z,41.63
2023-02-14T14:30:32.993Z,42.15
2023-02-14T14:33:26.155Z,42.71
2023-02-14T14:35:54.365Z,42.38
2023-02-14T14:38:22.453Z,42.04
2023-02-14T14:40:51.331Z,42.06
2023-02-14T14:43:31.581Z,43.20
2023-02-14T14:46:02.267Z,43.08
2023-02-14T14:48:38.874Z,42.43
2023-02-14T14:51:08.962Z,42.47
2023-02-14T14:53:59.989Z,42.68
2023-02-14T14:56:31.154Z,42.55
2023-02-14T14:59:15.376Z,43.32
2023-02-14T15:01:44.140Z,42.74
2023-02-14T15:04:16.003Z,43.03
2023-02-14T15:06:43.688Z,43.33
2023-02-14T15:09:16.905Z,43.00
2023-02-14T15:12:05.008Z,43.91
2023-02-14T15:14:36.390Z,43.74
2023-02-14T15:17:13.207Z,44.58
2023-02-14T15:19:44.210Z,44.76
2023-02-14T15:22:19.705Z,44.91
2023-02-14T15:24:48.100Z,44.89
2023-02-14T15:27:18.141Z,44.37
2023-02-14T15:30:00.420Z,44.50
2023-02-14T15:32:32.049Z,44.64
2023-02-14T15:35:03.152Z,45.50
2023-02-14T15:37:32.319Z,46.03
2023-02-14T15:40:01.734Z,45.90
2023-02-14T15:42:33.060Z,46.23
2023-02-14T15:45:19.243Z,46.25
2023-02-14T15:47:49.433Z,47.04
2023-02-14T15:50:24.395Z,47.16
2023-02-14T15:53:02.379Z,46.89
2023-02-14T15:55:31.490Z,46.52
2023-02-14T15:58:06.868Z,46.91
2023-02-14T16:00:35.061Z,46.92
2023-02-14T16:03:07.269Z,47.71
2023-02-14T16:05:34.783Z,48.37
2023-02-14T16:08:08.048Z,48.83
2023-02-14T16:10:37.793Z,49.03
2023-02-14T16:13:18.622Z,49.57
2023-02-14T16:16:06.603Z,50.14
2023-02-14T16:18:44.011Z,50.56
2023-02-14T16:21:15.909Z,50.79
2023-02-14T16:23:46.052Z,51.33
2023-02-14T16:26:14.180Z,52.18
2023-02-14T16:28:43.319Z,52.19
2023-02-14T16:31:16.457Z,52.90
2023-02-14T16:33:44.078Z,53.55
2023-02-14T16:36:30.010Z,53.88
2023-02-14T16:38:58.256Z,54.07
2023-02-14T16:41:28.207Z,54.27
2023-02-14T16:43:59.686Z,54.40
2023-02-14T16:46:31.647Z,54.86
2023-02-14T16:48:58.911Z,55.42
2023-02-14T16:51:29.452Z,56.04
2023-02-14T16:54:00.369Z,56.97
2023-02-14T16:56:33.862Z,56.70
2023-02-14T16:59:01.229Z,57.79
2023-02-14T17:01:28.782Z,57.89
2023-02-14T17:03:56.121Z,58.59
2023-02-14T17:06:27.650Z,58.87
2023-02-14T17:08:57.156Z,59.24
2023-02-14T17:11:26.297Z,59.11
2023-02-14T17:13:54.610Z,59.29
2023-02-14T17:16:22.516Z,59.60
2023-02-14T17:18:52.301Z,59.69
2023-02-14T17:21:21.887Z,60.15
2023-02-14T17:23:49.755Z,60.33
2023-02-14T17:26:18.801Z,60.45
2023-02-14T17:28:46.666Z,60.45
2023-02-14T17:31:14.371Z,60.99
2023-02-14T17:33:41.785Z,61.87
2023-02-14T17:36:12.235Z,62.32
2023-02-14T17:38:40.569Z,62.71
2023-02-14T17:41:23.605Z,63.83
2023-02-14T17:43:52.995Z,63.31
2023-02-14T17:46:21.058Z,63.73
2023-02-14T17:48:49.264Z,64.24
2023-02-14T17:51:20.290Z,64.53
2023-02-14T17:53:48.474Z,64.88
2023-02-14T17:56:22.014Z,65.45
2023-02-14T17:58:51.536Z,65.93
2023-02-14T18:01:22.687Z,66.32
2023-02-14T18:03:52.069Z,67.34
2023-02-14T18:06:19.976Z,67.31
2023-02-14T18:08:49.901Z,67.60
2023-02-14T18:11:19.618Z,68.12
2023-02-14T18:13:47.108Z,68.91
2023-02-14T18:16:18.053Z,69.64
2023-02-14T18:18:45.691Z,70.41
2023-02-14T18:21:15.388Z,71.21
2023-02-14T18:23:43.358Z,71.71
2023-02-14T18:26:13.258Z,71.66
2023-02-14T18:28:41.158Z,71.96
2023-02-14T18:31:14.549Z,72.23
2023-02-14T18:33:42.509Z,72.36
2023-02-14T18:36:15.868Z,73.00
2023-02-14T18:38:45.305Z,72.82
2023-02-14T18:41:15.500Z,72.86
2023-02-14T18:43:44.577Z,73.14
2023-02-14T18:46:15.065Z,73.83
2023-02-14T18:48:49.546Z,74.83
2023-02-14T18:51:23.622Z,74.63
2023-02-14T18:53:52.347Z,75.26
2023-02-14T18:56:23.026Z,75.36
2023-02-14T18:58:53.846Z,75.90
2023-02-14T19:01:24.236Z,76.29
2023-02-14T19:03:52.951Z,77.02
2023-02-14T19:06:22.174Z,77.73
2023-02-14T19:08:49.566Z,78.86
2023-02-14T19:11:19.987Z,78.91
2023-02-14T19:13:50.033Z,79.11
2023-02-14T19:16:20.834Z,79.91
2023-02-14T19:18:49.811Z,80.08
2023-02-14T19:21:20.501Z,80.97
2023-02-14T19:23:48.524Z,80.49
2023-02-14T19:26:18.173Z,80.50
2023-02-14T19:28:47.234Z,80.48
2023-02-14T19:31:15.563Z,80.56
2023-02-14T19:33:45.321Z,80.95
2023-02-14T19:36:17.519Z,81.46
2023-02-14T19:38:48.213Z,80.98
2023-02-14T19:41:19.679Z,79.49
2023-02-14T19:43:48.830Z,79.11
2023-02-14T19:46:17.836Z,79.22
2023-02-14T19:48:46.208Z,80.09
2023-02-14T19:51:21.331Z,79.62
2023-02-14T19:53:49.735Z,79.81
2023-02-14T19:56:21.548Z,78.67
2023-02-14T19:58:50.319Z,78.64
2023-02-14T20:01:32.981Z,80.00
2023-02-14T20:04:00.758Z,79.38
2023-02-14T20:06:29.549Z,79.25
2023-02-14T20:08:57.393Z,79.53
2023-02-14T20:11:33.017Z,79.88
2023-02-14T20:14:01.223Z,80.24
2023-02-14T20:16:30.909Z,80.20
2023-02-14T20:19:00.478Z,79.78
2023-02-14T20:21:28.433Z,80.14
2023-02-14T20:24:01.065Z,80.29
2023-02-14T20:26:31.182Z,81.30
2023-02-14T20:29:00.222Z,82.02
2023-02-14T20:31:27.557Z,82.20
2023-02-14T20:33:56.761Z,82.17
2023-02-14T20:36:24.785Z,82.23
2023-02-14T20:38:56.492Z,82.33
2023-02-14T20:41:24.503Z,82.25
2023-02-14T20:43:52.098Z,82.87
2023-02-14T20:46:19.960Z,83.22
2023-02-14T20:48:47.593Z,84.22
2023-02-14T20:51:17.373Z,83.28
2023-02-14T20:53:46.360Z,83.20
2023-02-14T20:56:15.428Z,83.17
2023-02-14T20:58:43.227Z,82.72
2023-02-14T21:01:13.298Z,82.42
2023-02-14T21:04:01.527Z,82.41
2023-02-14T21:06:32.854Z,82.66
2023-02-14T21:09:01.583Z,81.97
2023-02-14T21:11:31.707Z,81.33
2023-02-14T21:14:01.472Z,81.04
2023-02-14T21:16:30.188Z,81.22
2023-02-14T21:18:59.646Z,81.82
2023-02-14T21:21:35.463Z,81.53
2023-02-14T21:24:11.948Z,81.76
2023-02-14T21:26:39.594Z,81.76
2023-02-14T21:29:08.086Z,82.01
2023-02-14T21:31:36.282Z,81.93
2023-02-14T21:34:04.783Z,81.03
2023-02-14T21:36:35.988Z,80.71
2023-02-14T21:39:04.956Z,81.37
2023-02-14T21:41:32.904Z,81.85
2023-02-14T21:44:02.535Z,81.75
2023-02-14T21:46:36.034Z,81.57
2023-02-14T21:49:23.459Z,82.55
2023-02-14T21:51:51.033Z,82.68
2023-02-14T21:54:18.426Z,82.65
2023-02-14T21:56:45.995Z,82.81
2023-02-14T21:59:13.854Z,81.71
2023-02-14T22:01:42.820Z,82.56
2023-02-14T22:04:12.259Z,82.53
2023-02-14T22:06:41.956Z,83.00
2023-02-14T22:09:12.302Z,81.66
2023-02-14T22:11:39.994Z,82.01
2023-02-14T22:14:07.327Z,81.78
2023-02-14T22:16:36.806Z,82.28
2023-02-14T22:19:05.263Z,82.98
2023-02-14T22:21:33.611Z,82.73
2023-02-14T22:24:01.550Z,81.89
2023-02-14T22:26:31.148Z,80.98
2023-02-14T22:29:00.449Z,80.66
2023-02-14T22:31:33.260Z,80.86
2023-02-14T22:34:00.617Z,80.48
2023-02-14T22:36:27.966Z,81.00
2023-02-14T22:38:55.346Z,81.81
2023-02-14T22:41:24.431Z,82.06
2023-02-14T22:43:53.218Z,81.81
2023-02-14T22:46:28.261Z,81.98
2023-02-14T22:48:56.677Z,82.06
2023-02-14T22:51:28.965Z,82.28
2023-02-14T22:54:02.041Z,82.66
2023-02-14T22:56:35.550Z,83.05
2023-02-14T22:59:06.234Z,83.40
2023-02-14T23:01:35.183Z,83.88
2023-02-14T23:04:03.695Z,84.23
2023-02-14T23:06:33.156Z,84.57
2023-02-14T23:09:02.126Z,85.23
2023-02-14T23:11:32.237Z,85.86
2023-02-14T23:14:18.702Z,86.42
2023-02-14T23:17:04.942Z,87.43
2023-02-14T23:19:53.444Z,87.98
2023-02-14T23:22:27.038Z,88.76
2023-02-14T23:24:59.678Z,88.91
2023-02-14T23:27:34.498Z,88.84
2023-02-14T23:30:03.801Z,89.62
2023-02-14T23:32:31.238Z,88.65
2023-02-14T23:34:58.988Z,89.26
2023-02-14T23:37:26.420Z,89.51
2023-02-14T23:39:53.768Z,88.95
2023-02-14T23:42:21.157Z,89.83
2023-02-14T23:44:50.293Z,89.40
2023-02-14T23:47:17.768Z,90.06
2023-02-14T23:49:45.986Z,89.60
2023-02-14T23:52:13.981Z,90.55
2023-02-14T23:54:41.493Z,90.26
2023-02-14T23:57:09.041Z,89.99
2023-02-14T23:59:36.479Z,90.61
